Latest Weather Observations for Thargomindah

IDQ60801

Issued at 7:32 pm EST Friday 22 May 2015 (issued every 30 minutes, with the page automatically refreshed every 10 minutes)

About weather observations | Map of weather stations | Latest weather observations for QLD | Other Formats
Station Details ID: 045025 Name: THARGOMINDAH AIRPORT Lat: -27.99 Lon: 143.81 Height: 130.89 m
Data from the previous 72 hours. | See also: Recent months at Thargomindah
Date/Time
EST
Temp
°C
App
Temp
°C
Dew
Point
Rel
Hum
%
Delta-T
°C
Wind Press
QNH
hPa
Press
MSL
hPa
Rain
since 9 am
mm
Dir
 
Spd
km/h
Gust
km/h
Spd
kts
Gust
kts
22/07:30pm 14.9 11.5 4.0 48 5.0 S 11 13 6 7 1026.1 - 0.0
22/07:00pm 15.5 12.1 3.9 46 5.4 S 11 15 6 8 1025.9 - 0.0
22/06:30pm 16.2 12.3 3.6 43 5.8 S 13 15 7 8 1025.6 - 0.0
22/06:00pm 16.9 13.0 3.2 40 6.3 S 13 17 7 9 1025.4 1024.9 0.0
22/05:30pm 17.5 12.3 2.7 37 6.8 S 19 24 10 13 1025.1 - 0.0
22/05:00pm 18.0 12.5 1.9 34 7.3 S 20 28 11 15 1024.8 - 0.0
22/04:30pm 18.6 13.3 2.9 35 7.3 S 20 30 11 16 1024.7 - 0.0
22/04:00pm 18.2 12.9 2.9 36 7.1 SSW 20 26 11 14 1024.8 - 0.0
22/03:30pm 18.7 13.1 3.3 36 7.2 SSW 22 30 12 16 1024.7 - 0.0
22/03:00pm 18.7 14.3 4.5 39 6.8 S 17 30 9 16 1024.8 1024.4 0.0
22/02:30pm 17.7 13.5 3.6 39 6.6 S 15 26 8 14 1024.9 - 0.0
22/02:00pm 17.7 12.9 4.6 42 6.3 S 19 26 10 14 1024.9 - 0.0
22/01:30pm 17.1 12.3 4.8 44 5.9 S 19 24 10 13 1025.0 - 0.0
22/01:00pm 17.0 13.1 5.3 46 5.7 S 15 32 8 17 1025.6 - 0.0
22/12:30pm 16.5 12.0 6.1 50 5.1 S 19 28 10 15 1026.0 - 0.0
22/12:00pm 15.2 11.1 6.0 54 4.4 S 17 32 9 17 1026.5 1026.2 0.0
22/11:30am 14.9 12.2 7.2 60 3.8 SSW 11 17 6 9 1026.9 - 0.0
22/11:00am 13.5 10.0 7.1 65 3.1 SSW 15 20 8 11 1027.1 - 0.0
22/10:30am 12.6 9.0 6.9 68 2.8 S 15 20 8 11 1027.3 - 0.0
22/10:00am 12.0 8.5 7.1 72 2.4 SSW 15 20 8 11 1027.6 - 0.0
22/09:30am 11.4 7.7 6.5 72 2.3 SSW 15 20 8 11 1027.3 - 0.0
22/09:00am 10.2 6.5 6.5 78 1.7 SSW 15 22 8 12 1026.9 1026.6 0.0
22/08:30am 9.4 6.4 6.1 80 1.5 SSW 11 19 6 10 1026.8 - 0.0
22/08:00am 8.5 5.9 6.0 84 1.1 SSW 9 13 5 7 1026.4 - 0.0
22/07:30am 7.7 4.6 5.7 87 0.9 SSW 11 13 6 7 1026.1 - 0.0
22/07:00am 7.4 4.0 5.7 89 0.8 SSW 13 17 7 9 1025.8 - 0.0
22/06:30am 7.3 3.9 5.8 90 0.7 SSW 13 15 7 8 1025.4 - 0.0
22/06:00am 7.3 4.2 5.6 89 0.8 SW 11 13 6 7 1025.2 1024.8 0.0
22/05:30am 7.5 4.5 5.8 89 0.8 SW 11 13 6 7 1025.1 - 0.0
22/05:00am 7.8 4.8 5.9 88 0.9 SW 11 13 6 7 1025.0 - 0.0
22/04:30am 8.3 5.3 6.1 86 1.0 SW 11 13 6 7 1024.8 - 0.0
22/04:00am 8.7 5.4 6.2 84 1.2 SSW 13 17 7 9 1024.6 - 0.0
22/03:30am 8.6 5.3 6.2 85 1.1 SSW 13 17 7 9 1024.6 - 0.0
22/03:00am 8.3 5.3 5.9 85 1.1 SW 11 13 6 7 1024.6 1024.2 0.0
22/02:30am 8.6 5.6 6.1 84 1.2 SW 11 13 6 7 1024.6 - 0.0
22/02:00am 8.8 5.8 6.1 83 1.2 WSW 11 13 6 7 1024.6 - 0.0
22/01:30am 9.2 6.3 6.3 82 1.3 SW 11 13 6 7 1024.7 - 0.0
22/01:00am 9.5 7.0 6.4 81 1.4 SW 9 11 5 6 1024.7 - 0.0
22/12:30am 10.0 7.5 6.5 79 1.6 SW 9 11 5 6 1024.7 - 0.0
22/12:00am 10.5 7.6 6.5 76 1.9 SSW 11 13 6 7 1024.8 1024.4 0.0
 
Date/Time
EST
Temp
°C
App
Temp
°C
Dew
Point
Rel
Hum
%
Delta-T
°C
Wind Press
QNH
hPa
Press
MSL
hPa
Rain
since 9 am
mm
Dir
 
Spd
km/h
Gust
km/h
Spd
kts
Gust
kts
21/11:30pm 11.1 7.8 6.3 72 2.3 SSW 13 15 7 8 1024.9 - 0.0
21/11:00pm 11.6 8.2 6.1 69 2.6 SSW 13 15 7 8 1025.0 - 0.0
21/10:30pm 12.2 8.1 6.0 66 2.9 SSW 17 22 9 12 1024.8 - 0.0
21/10:00pm 12.7 8.2 6.3 65 3.1 SSW 19 26 10 14 1024.7 - 0.0
21/09:30pm 12.9 9.6 6.5 65 3.1 SSW 13 19 7 10 1024.5 - 0.0
21/09:00pm 13.4 9.3 6.3 62 3.4 SSW 17 22 9 12 1024.3 1023.9 0.0
21/08:30pm 13.9 8.8 6.0 59 3.8 SSW 22 28 12 15 1024.0 - 0.0
21/08:00pm 14.2 10.1 6.3 59 3.8 SSW 17 24 9 13 1023.5 - 0.0
21/07:30pm 14.8 10.4 6.4 57 4.1 SSW 19 24 10 13 1023.0 - 0.0
21/07:00pm 15.0 11.6 5.8 54 4.4 SW 13 20 7 11 1022.4 - 0.0
21/06:30pm 15.7 11.5 5.6 51 4.9 SW 17 20 9 11 1022.0 - 0.0
21/06:00pm 16.4 10.7 5.1 47 5.4 SW 24 30 13 16 1021.8 1021.4 0.0
21/05:30pm 17.1 11.8 4.8 44 5.9 SW 22 32 12 17 1021.5 - 0.0
21/05:00pm 17.8 11.7 4.7 42 6.3 SW 26 39 14 21 1021.1 - 0.0
21/04:30pm 18.5 12.3 6.0 44 6.2 SW 28 37 15 20 1020.9 - 0.0
21/04:00pm 19.0 13.4 5.5 41 6.6 SW 24 33 13 18 1020.6 - 0.0
21/03:30pm 18.9 13.4 6.1 43 6.4 WSW 24 35 13 19 1020.5 - 0.0
21/03:00pm 19.0 12.8 6.1 43 6.4 SW 28 39 15 21 1020.6 1020.3 0.0
21/02:30pm 18.3 12.4 7.7 50 5.4 WSW 28 37 15 20 1020.6 - 0.0
21/02:00pm 18.2 13.5 7.9 51 5.3 WSW 22 35 12 19 1020.7 - 0.0
21/01:30pm 19.3 14.9 8.9 51 5.5 WSW 22 32 12 17 1020.9 - 0.0
21/01:00pm 18.6 13.9 9.4 55 4.9 WSW 24 33 13 18 1021.2 - 0.0
21/12:30pm 19.0 15.6 11.1 60 4.3 WSW 20 32 11 17 1021.3 - 0.0
21/12:00pm 19.0 16.3 11.8 63 4.0 W 17 22 9 12 1021.5 1021.2 0.0
21/11:30am 18.0 15.7 11.8 67 3.4 W 15 19 8 10 1021.9 - 0.0
21/11:00am 17.1 14.9 12.2 73 2.7 W 15 19 8 10 1022.1 - 0.0
21/10:30am 16.6 15.4 11.7 73 2.7 W 9 13 5 7 1022.1 - 0.0
21/10:00am 15.7 14.6 11.9 78 2.1 W 9 13 5 7 1022.2 - 0.0
21/09:30am 15.4 13.9 12.0 80 1.9 WSW 11 13 6 7 1022.2 - 0.0
21/09:00am 14.2 13.3 12.6 90 0.9 WNW 9 13 5 7 1022.2 1021.9 4.4
21/08:30am 13.8 13.3 12.7 93 0.6 NW 7 9 4 5 1021.9 - 4.4
21/08:00am 13.5 12.9 12.4 93 0.6 NW 7 9 4 5 1021.6 - 4.4
21/07:30am 13.6 13.1 12.5 93 0.6 NW 7 7 4 4 1021.3 - 4.4
21/07:00am 13.8 13.3 12.5 92 0.7 WNW 7 9 4 5 1021.0 - 4.4
21/06:30am 13.9 12.6 12.6 92 0.7 WNW 11 15 6 8 1021.0 - 4.4
21/06:00am 13.9 13.0 12.6 92 0.7 NW 9 11 5 6 1020.6 1020.3 4.4
21/05:30am 14.0 13.5 12.7 92 0.7 NNW 7 9 4 5 1020.3 - 4.4
21/05:00am 14.1 13.6 12.8 92 0.7 N 7 9 4 5 1020.1 - 4.4
21/04:30am 14.1 13.6 12.8 92 0.7 N 7 9 4 5 1020.2 - 4.4
21/04:00am 14.5 13.7 13.0 91 0.8 N 9 9 5 5 1020.1 - 4.2
21/03:30am 14.6 13.5 13.1 91 0.8 NNW 11 13 6 7 1020.4 - 4.2
21/03:00am 14.7 14.0 13.2 91 0.8 N 9 11 5 6 1020.4 1020.1 4.2
21/02:30am 14.8 14.5 13.3 91 0.8 NNW 7 9 4 5 1020.6 - 4.2
21/02:00am 14.8 14.5 13.3 91 0.8 NNW 7 9 4 5 1020.9 - 4.2
21/01:30am 14.9 14.7 13.6 92 0.7 N 7 9 4 5 1020.8 - 4.2
21/01:00am 14.9 14.6 13.3 90 0.9 NNW 7 9 4 5 1020.8 - 4.2
21/12:30am 15.0 14.7 13.4 90 0.9 NNW 7 9 4 5 1020.9 - 4.2
21/12:00am 14.9 14.2 13.3 90 0.9 NW 9 11 5 6 1021.2 1020.9 4.2
 
Date/Time
EST
Temp
°C
App
Temp
°C
Dew
Point
Rel
Hum
%
Delta-T
°C
Wind Press
QNH
hPa
Press
MSL
hPa
Rain
since 9 am
mm
Dir
 
Spd
km/h
Gust
km/h
Spd
kts
Gust
kts
20/11:30pm 14.9 14.2 13.1 89 1.0 NW 9 13 5 7 1021.2 - 4.2
20/11:00pm 15.2 14.9 13.4 89 1.0 WNW 7 9 4 5 1021.3 - 4.2
20/10:30pm 15.3 15.2 13.8 91 0.8 NW 7 11 4 6 1021.4 - 4.2
20/10:00pm 15.2 14.3 13.6 90 0.9 N 11 13 6 7 1021.4 - 4.2
20/09:30pm 15.1 13.0 13.6 91 0.8 N 17 20 9 11 1021.2 - 4.2
20/09:00pm 15.1 14.2 13.6 91 0.8 N 11 15 6 8 1020.9 1020.5 4.2
20/08:30pm 15.0 14.0 13.5 91 0.8 NNE 11 15 6 8 1020.4 - 4.0
20/08:00pm 15.0 14.7 13.4 90 0.9 NNW 7 9 4 5 1020.9 - 3.8
20/07:30pm 15.1 14.9 13.1 88 1.1 NE 6 7 3 4 1020.4 - 3.8
20/07:00pm 15.5 13.7 13.2 86 1.3 N 15 19 8 10 1020.8 - 3.2
20/06:30pm 15.7 14.2 13.2 85 1.4 N 13 15 7 8 1020.3 - 3.0
20/06:00pm 16.1 15.0 13.2 83 1.6 N 11 15 6 8 1020.3 1019.9 2.8
20/05:30pm 16.6 16.1 13.7 83 1.6 NNE 9 13 5 7 1019.4 - 2.4
20/05:00pm 16.9 16.3 13.4 80 2.0 N 9 11 5 6 1019.4 - 2.2
20/04:30pm 17.7 16.6 13.0 74 2.6 N 11 13 6 7 1019.5 - 1.8
20/04:00pm 17.9 16.9 12.4 70 3.1 NNW 9 11 5 6 1019.4 - 1.8
20/03:30pm 18.0 16.4 12.7 71 3.0 NNW 13 15 7 8 1019.4 - 1.6
20/03:00pm 18.0 17.5 12.7 71 3.0 NNW 7 13 4 7 1019.1 1018.7 1.6
20/02:30pm 17.8 17.5 13.3 75 2.6 W 7 9 4 5 1019.3 - 1.6
20/02:00pm 18.3 17.8 12.5 69 3.2 NNW 7 9 4 5 1019.2 - 1.2
20/01:30pm 18.3 18.4 11.4 64 3.8 ENE 2 6 1 3 1018.6 - 1.0
20/01:00pm 18.3 18.9 11.8 66 3.6 CALM 0 0 0 0 1019.2 - 1.0
20/12:30pm 18.0 17.1 11.3 65 3.7 NE 7 11 4 6 1019.2 - 1.0
20/12:00pm 17.0 17.4 11.1 68 3.2 CALM 0 0 0 0 1019.9 1019.6 1.0
20/11:30am 16.3 14.4 11.7 74 2.5 NE 13 17 7 9 1019.9 - 1.0
20/11:00am 17.2 15.1 11.2 68 3.3 NNW 13 20 7 11 1021.0 - 0.8
20/10:30am 20.0 17.2 7.1 43 6.6 SW 11 13 6 7 1020.4 - 0.0
20/10:00am 20.8 15.8 4.4 34 8.0 SSW 20 24 11 13 1019.8 - 0.0
20/09:30am 20.1 17.7 6.8 42 6.8 WSW 9 13 5 7 1019.7 - 0.0
20/09:00am 19.7 17.8 7.4 45 6.3 WSW 7 9 4 5 1019.0 1018.6 0.0
20/08:30am 19.1 17.2 7.5 47 5.9 W 7 7 4 4 1018.6 - 0.0
20/08:00am 18.3 16.0 7.4 49 5.5 WSW 9 9 5 5 1018.2 - 0.0
20/07:30am 17.5 15.6 7.5 52 5.1 W 7 9 4 5 1017.8 - 0.0
20/07:00am 17.2 15.4 7.3 52 5.0 W 6 7 3 4 1017.5 - 0.0
20/06:30am 17.9 15.6 7.6 51 5.2 SW 9 11 5 6 1017.2 - 0.0
20/06:00am 18.5 16.7 7.9 50 5.4 WSW 7 9 4 5 1016.8 1016.4 0.0
20/05:30am 18.5 16.8 8.2 51 5.3 WNW 7 9 4 5 1016.7 - 0.0
20/05:00am 18.4 16.7 8.4 52 5.2 W 7 11 4 6 1016.5 - 0.0
20/04:30am 18.4 17.2 8.1 51 5.3 W 4 9 2 5 1016.3 - 0.0
20/04:00am 18.9 17.2 8.3 50 5.5 WNW 7 11 4 6 1016.1 - 0.0
20/03:30am 18.9 16.2 9.1 53 5.2 SW 13 22 7 12 1016.2 - 0.0
20/03:00am 18.5 17.1 8.7 53 5.1 N 6 7 3 4 1015.7 1015.4 0.0
20/02:30am 18.9 17.4 9.1 53 5.2 N 7 9 4 5 1015.7 - 0.0
20/02:00am 18.6 17.0 8.8 53 5.1 N 7 9 4 5 1015.5 - 0.0
20/01:30am 18.9 17.0 9.1 53 5.2 NNE 9 9 5 5 1015.5 - 0.0
20/01:00am 18.5 16.5 8.5 52 5.2 NNE 9 11 5 6 1015.7 - 0.0
20/12:30am 19.2 16.7 8.2 49 5.7 N 11 13 6 7 1016.1 - 0.0
20/12:00am 19.1 17.0 8.4 50 5.6 N 9 11 5 6 1016.3 1015.9 0.0
 
Date/Time
EST
Temp
°C
App
Temp
°C
Dew
Point
Rel
Hum
%
Delta-T
°C
Wind Press
QNH
hPa
Press
MSL
hPa
Rain
since 9 am
mm
Dir
 
Spd
km/h
Gust
km/h
Spd
kts
Gust
kts
19/11:30pm 18.2 16.0 7.9 51 5.3 N 9 11 5 6 1016.5 - 0.0
19/11:00pm 18.7 16.2 8.4 51 5.4 NNE 11 11 6 6 1016.7 - 0.0
19/10:30pm 18.1 15.6 8.1 52 5.1 NNE 11 11 6 6 1016.7 - 0.0
19/10:00pm 17.5 15.0 6.7 49 5.4 N 9 11 5 6 1016.8 - 0.0
19/09:30pm 18.5 16.9 8.7 53 5.1 N 7 7 4 4 1016.6 - 0.0
19/09:00pm 20.1 17.9 7.8 45 6.4 NNW 9 9 5 5 1016.7 1016.3 0.0
19/08:30pm 20.4 18.1 7.4 43 6.7 N 9 9 5 5 1016.6 - 0.0
19/08:00pm 21.2 19.1 8.1 43 6.9 NNW 9 11 5 6 1016.4 - 0.0

Other Formats:

Comma delimited format used in spreadsheet applications
http://www.bom.gov.au/fwo/IDQ60801/IDQ60801.95492.axf

JavaScript Object Notation format (JSON) in row-major order
http://www.bom.gov.au/fwo/IDQ60801/IDQ60801.95492.json